Sussex, North Carolina
Current Conditions -  °F | °C
As of 4:35 PM on Monday 24 Nov 2014 (Local Time) from KGEV Reporting Station
Scattered Clouds Scattered Clouds  
Wind Chill: 60°   Ceiling: Unl
Heat Index: 60°   Visibility: 10mi
Dew Point: 48°   Wind: 0mph
Humidity: 65%   Direction: NA
Pressure: 29.79"   Gusts: NA
Location:  36.5447°N, 81.4342°W
Report Text: KGEV 242135Z AUTO 00000KT 10SM SCT055 16/09 A2979 RMK AO2 T01560090
Loading
Personal Weather Stations






























Interactive Weather Map New forecast layout! Learn more

10-Day Weather Forecast

Advertisements
Track Severe Weather on mobile